createdAt,value
2018-07-15T00:00:03.299Z,99551.10
2018-07-15T00:02:32.473Z,99548.36
2018-07-15T00:05:01.378Z,99548.12
2018-07-15T00:07:30.395Z,99540.22
2018-07-15T00:09:59.622Z,99542.98
2018-07-15T00:12:28.789Z,99547.62
2018-07-15T00:14:57.781Z,99541.94
2018-07-15T00:17:26.977Z,99548.44
2018-07-15T00:19:56.154Z,99547.62
2018-07-15T00:22:25.597Z,99551.44
2018-07-15T00:24:54.846Z,99546.58
2018-07-15T00:27:24.735Z,99549.59
2018-07-15T00:29:54.270Z,99552.85
2018-07-15T00:32:23.366Z,99549.31
2018-07-15T00:34:52.394Z,99551.23
2018-07-15T00:37:21.461Z,99550.45
2018-07-15T00:39:50.763Z,99550.96
2018-07-15T00:42:19.890Z,99551.52
2018-07-15T00:44:49.167Z,99550.14
2018-07-15T00:47:18.538Z,99548.52
2018-07-15T00:49:47.663Z,99543.11
2018-07-15T00:52:16.857Z,99543.41
2018-07-15T00:54:46.065Z,99539.88
2018-07-15T00:57:15.253Z,99543.41
2018-07-15T00:59:44.633Z,99539.89
2018-07-15T01:02:13.838Z,99492.18
2018-07-15T01:04:42.925Z,99534.48
2018-07-15T01:07:12.061Z,99533.66
2018-07-15T01:09:41.363Z,99533.12
2018-07-15T01:12:10.590Z,99531.48
2018-07-15T01:14:39.737Z,99525.81
2018-07-15T01:17:08.941Z,99528.23
2018-07-15T01:19:38.228Z,99527.70
2018-07-15T01:22:07.333Z,99519.01
2018-07-15T01:24:36.599Z,99515.22
2018-07-15T01:27:05.899Z,99511.39
2018-07-15T01:29:35.117Z,99506.80
2018-07-15T01:32:04.292Z,99512.75
2018-07-15T01:34:33.514Z,99510.05
2018-07-15T01:37:02.609Z,99514.38
2018-07-15T01:39:31.938Z,99515.50
2018-07-15T01:42:01.167Z,99500.83
2018-07-15T01:44:30.364Z,99507.08
2018-07-15T01:46:59.537Z,99504.36
2018-07-15T01:49:28.730Z,99500.84
2018-07-15T01:51:57.961Z,99506.25
2018-07-15T01:54:26.682Z,99504.38
2018-07-15T01:56:55.405Z,99503.81
2018-07-15T01:59:24.146Z,99506.53
2018-07-15T02:01:52.866Z,99509.55
2018-07-15T02:04:21.618Z,99516.88
2018-07-15T02:06:50.334Z,99513.87
2018-07-15T02:09:19.118Z,99509.55
2018-07-15T02:11:47.944Z,99513.07
2018-07-15T02:14:16.704Z,99511.17
2018-07-15T02:16:45.471Z,99508.98
2018-07-15T02:19:14.245Z,99512.53
2018-07-15T02:21:43.003Z,99513.05
2018-07-15T02:24:11.751Z,99512.50
2018-07-15T02:26:40.477Z,99509.52
2018-07-15T02:29:09.223Z,99509.79
2018-07-15T02:31:38.017Z,99516.33
2018-07-15T02:34:08.601Z,99517.96
2018-07-15T02:36:37.405Z,99514.43
2018-07-15T02:39:07.924Z,99513.87
2018-07-15T02:41:36.772Z,99513.59
2018-07-15T02:44:05.978Z,99516.86
2018-07-15T02:46:34.831Z,99515.50
2018-07-15T02:49:03.546Z,99514.67
2018-07-15T02:51:32.238Z,99513.59
2018-07-15T02:54:00.948Z,99516.86
2018-07-15T02:56:29.650Z,99519.03
2018-07-15T02:58:58.396Z,99519.05
2018-07-15T03:01:27.111Z,99516.88
2018-07-15T03:03:55.831Z,99522.03
2018-07-15T03:06:24.552Z,99521.75
2018-07-15T03:08:53.282Z,99515.52
2018-07-15T03:11:22.162Z,99522.84
2018-07-15T03:13:51.027Z,99530.69
2018-07-15T03:16:19.784Z,99519.03
2018-07-15T03:18:48.526Z,99517.41
2018-07-15T03:21:17.272Z,99513.34
2018-07-15T03:23:51.602Z,99513.87
2018-07-15T03:26:20.363Z,99517.67
2018-07-15T03:28:49.701Z,99517.69
2018-07-15T03:31:18.431Z,99518.47
2018-07-15T03:33:47.128Z,99518.48
2018-07-15T03:36:15.892Z,99524.44
2018-07-15T03:38:44.678Z,99526.02
2018-07-15T03:41:13.406Z,99525.45
2018-07-15T03:43:42.228Z,99518.02
2018-07-15T03:46:10.964Z,99518.91
2018-07-15T03:48:39.681Z,99514.84
2018-07-15T03:51:08.481Z,99510.81
2018-07-15T03:53:37.170Z,99507.75
2018-07-15T03:56:05.893Z,99501.45
2018-07-15T03:58:34.633Z,99504.05
2018-07-15T04:01:03.400Z,99514.21
2018-07-15T04:03:32.116Z,99518.47
2018-07-15T04:06:00.837Z,99512.70
2018-07-15T04:08:29.717Z,99512.87
2018-07-15T04:10:58.528Z,99520.41
2018-07-15T04:13:27.418Z,99523.31
2018-07-15T04:15:56.131Z,99523.44
2018-07-15T04:18:24.821Z,99531.50
2018-07-15T04:20:53.589Z,99534.11
2018-07-15T04:23:22.414Z,99529.11
2018-07-15T04:25:51.171Z,99526.95
2018-07-15T04:28:19.941Z,99524.08
2018-07-15T04:30:48.658Z,99523.61
2018-07-15T04:33:17.375Z,99528.23
2018-07-15T04:35:46.102Z,99525.05
2018-07-15T04:38:14.850Z,99515.13
2018-07-15T04:40:43.563Z,99516.72
2018-07-15T04:43:12.271Z,99513.75
2018-07-15T04:45:40.971Z,99515.47
2018-07-15T04:48:09.736Z,99515.70
2018-07-15T04:50:38.451Z,99517.45
2018-07-15T04:53:07.173Z,99516.80
2018-07-15T04:55:35.975Z,99516.63
2018-07-15T04:58:04.714Z,99520.74
2018-07-15T05:00:33.436Z,99525.95
2018-07-15T05:03:02.213Z,99517.36
2018-07-15T05:05:30.916Z,99524.81
2018-07-15T05:07:59.613Z,99525.10
2018-07-15T05:10:28.305Z,99524.34
2018-07-15T05:12:57.017Z,99520.44
2018-07-15T05:15:25.832Z,99512.67
2018-07-15T05:17:54.608Z,99511.79
2018-07-15T05:20:23.332Z,99510.70
2018-07-15T05:22:52.061Z,99513.76
2018-07-15T05:25:20.764Z,99508.34
2018-07-15T05:27:49.494Z,99511.73
2018-07-15T05:30:18.209Z,99512.55
2018-07-15T05:32:46.937Z,99513.45
2018-07-15T05:35:15.643Z,99510.54
2018-07-15T05:37:44.332Z,99502.33
2018-07-15T05:40:13.096Z,99499.11
2018-07-15T05:42:41.802Z,99504.40
2018-07-15T05:45:10.533Z,99498.77
2018-07-15T05:47:39.296Z,99501.70
2018-07-15T05:50:08.083Z,99491.73
2018-07-15T05:52:36.851Z,99504.28
2018-07-15T05:55:05.738Z,99492.34
2018-07-15T05:57:34.450Z,99494.23
2018-07-15T06:00:03.196Z,99490.48
2018-07-15T06:02:31.931Z,99486.48
2018-07-15T06:05:00.699Z,99486.23
2018-07-15T06:07:29.457Z,99481.77
2018-07-15T06:09:58.370Z,99487.76
2018-07-15T06:12:27.145Z,99484.86
2018-07-15T06:14:55.845Z,99479.81
2018-07-15T06:17:24.593Z,99483.37
2018-07-15T06:19:53.297Z,99478.16
2018-07-15T06:22:21.987Z,99483.69
2018-07-15T06:24:50.695Z,99481.84
2018-07-15T06:27:19.469Z,99483.25
2018-07-15T06:29:48.148Z,99476.63
2018-07-15T06:32:16.846Z,99477.70
2018-07-15T06:34:45.593Z,99476.39
2018-07-15T06:37:14.286Z,99476.75
2018-07-15T06:39:42.992Z,99472.48
2018-07-15T06:42:11.901Z,99475.30
2018-07-15T06:44:40.586Z,99462.60
2018-07-15T06:47:09.341Z,99473.22
2018-07-15T06:49:38.032Z,99471.31
2018-07-15T06:52:06.781Z,99466.64
2018-07-15T06:54:35.482Z,99464.92
2018-07-15T06:57:04.177Z,99466.87
2018-07-15T06:59:32.882Z,99471.16
2018-07-15T07:02:01.618Z,99467.61
2018-07-15T07:04:30.562Z,99465.17
2018-07-15T07:06:59.299Z,99473.34
2018-07-15T07:09:27.985Z,99469.48
2018-07-15T07:11:56.676Z,99469.02
2018-07-15T07:14:25.368Z,99470.16
2018-07-15T07:16:54.053Z,99463.04
2018-07-15T07:19:22.813Z,99459.23
2018-07-15T07:21:51.496Z,99458.59
2018-07-15T07:24:20.333Z,99460.80
2018-07-15T07:26:49.056Z,99468.45
2018-07-15T07:29:17.765Z,99469.30
2018-07-15T07:31:47.457Z,99462.75
2018-07-15T07:34:16.148Z,99459.63
2018-07-15T07:36:44.941Z,99465.00
2018-07-15T07:39:13.681Z,99468.30
2018-07-15T07:41:42.397Z,99463.74
2018-07-15T07:44:11.154Z,99465.55
2018-07-15T07:46:39.852Z,99465.01
2018-07-15T07:49:08.543Z,99461.75
2018-07-15T07:51:37.276Z,99460.00
2018-07-15T07:54:06.024Z,99425.36
2018-07-15T07:56:34.811Z,99454.02
2018-07-15T07:59:03.545Z,99458.94
2018-07-15T08:01:32.245Z,99449.61
2018-07-15T08:04:00.937Z,99458.38
2018-07-15T08:06:29.714Z,99451.05
2018-07-15T08:08:58.393Z,99454.86
2018-07-15T08:11:27.245Z,99450.27
2018-07-15T08:13:55.943Z,99452.61
2018-07-15T08:16:24.649Z,99453.09
2018-07-15T08:18:53.389Z,99445.88
2018-07-15T08:21:22.085Z,99450.05
2018-07-15T08:23:50.773Z,99452.03
2018-07-15T08:26:19.545Z,99444.10
2018-07-15T08:28:48.260Z,99441.97
2018-07-15T08:31:18.503Z,99439.73
2018-07-15T08:33:47.308Z,99440.09
2018-07-15T08:36:16.001Z,99437.23
2018-07-15T08:38:44.679Z,99428.33
2018-07-15T08:41:13.425Z,99431.61
2018-07-15T08:43:42.118Z,99430.91
2018-07-15T08:46:10.968Z,99429.98
2018-07-15T08:48:39.695Z,99427.30
2018-07-15T08:51:08.574Z,99425.95
2018-07-15T08:53:37.316Z,99424.48
2018-07-15T08:56:06.066Z,99423.25
2018-07-15T08:58:34.781Z,99422.46
2018-07-15T09:01:03.524Z,99420.81
2018-07-15T09:03:32.222Z,99430.30
2018-07-15T09:06:00.957Z,99424.62
2018-07-15T09:08:29.653Z,99431.25
2018-07-15T09:10:58.357Z,99443.31
2018-07-15T09:13:27.069Z,99427.30
2018-07-15T09:15:55.777Z,99425.77
2018-07-15T09:18:25.042Z,99425.97
2018-07-15T09:20:53.778Z,99426.29
2018-07-15T09:23:22.504Z,99426.06
2018-07-15T09:25:51.189Z,99423.45
2018-07-15T09:28:19.885Z,99424.87
2018-07-15T09:30:48.628Z,99420.86
2018-07-15T09:33:17.326Z,99421.36
2018-07-15T09:35:46.078Z,99425.31
2018-07-15T09:38:14.870Z,99418.97
2018-07-15T09:40:43.585Z,99422.89
2018-07-15T09:43:12.354Z,99423.48
2018-07-15T09:45:41.128Z,99427.30
2018-07-15T09:48:10.701Z,99438.65
2018-07-15T09:50:39.547Z,99426.15
2018-07-15T09:53:08.246Z,99430.45
2018-07-15T09:55:37.046Z,99427.53
2018-07-15T09:58:05.834Z,99429.52
2018-07-15T10:00:39.717Z,99413.97
2018-07-15T10:03:08.414Z,99423.72
2018-07-15T10:05:37.129Z,99411.77
2018-07-15T10:08:05.886Z,99413.15
2018-07-15T10:10:34.607Z,99417.49
2018-07-15T10:13:03.315Z,99419.94
2018-07-15T10:15:32.029Z,99415.56
2018-07-15T10:18:00.753Z,99420.33
2018-07-15T10:20:29.457Z,99418.42
2018-07-15T10:22:58.162Z,99417.31
2018-07-15T10:25:26.876Z,99416.34
2018-07-15T10:27:55.577Z,99421.51
2018-07-15T10:30:24.437Z,99423.34
2018-07-15T10:32:53.353Z,99420.06
2018-07-15T10:35:22.059Z,99416.16
2018-07-15T10:37:50.828Z,99410.39
2018-07-15T10:40:19.551Z,99406.83
2018-07-15T10:42:48.461Z,99407.58
2018-07-15T10:45:17.206Z,99398.39
2018-07-15T10:47:46.066Z,99389.66
2018-07-15T10:50:14.825Z,99395.52
2018-07-15T10:52:43.658Z,99395.52
2018-07-15T10:55:12.373Z,99392.45
2018-07-15T10:57:41.075Z,99390.81
2018-07-15T11:00:09.787Z,99378.23
2018-07-15T11:02:38.502Z,99379.94
2018-07-15T11:05:07.741Z,99384.40
2018-07-15T11:07:36.442Z,99375.86
2018-07-15T11:12:39.005Z,99381.06
2018-07-15T11:15:07.686Z,99378.14
2018-07-15T11:17:36.442Z,99370.55
2018-07-15T11:20:05.251Z,99359.45
2018-07-15T11:22:33.953Z,99363.70
2018-07-15T11:25:02.692Z,99362.48
2018-07-15T11:27:31.414Z,99359.53
2018-07-15T11:30:00.323Z,99359.60
2018-07-15T11:32:29.029Z,99364.00
2018-07-15T11:34:57.717Z,99351.22
2018-07-15T11:37:26.478Z,99344.45
2018-07-15T11:39:55.197Z,99349.77
2018-07-15T11:42:24.070Z,99345.32
2018-07-15T11:44:52.799Z,99351.08
2018-07-15T11:47:21.489Z,99350.93
2018-07-15T11:49:50.214Z,99349.34
2018-07-15T11:52:18.982Z,99339.50
2018-07-15T11:54:47.816Z,99341.20
2018-07-15T11:57:16.541Z,99340.72
2018-07-15T11:59:45.235Z,99341.97
2018-07-15T12:02:13.954Z,99350.27
2018-07-15T12:04:42.649Z,99339.73
2018-07-15T12:07:11.362Z,99344.09
2018-07-15T12:09:40.062Z,99342.86
2018-07-15T12:12:08.769Z,99334.14
2018-07-15T12:14:37.515Z,99342.51
2018-07-15T12:17:06.214Z,99333.55
2018-07-15T12:19:35.049Z,99337.33
2018-07-15T12:22:03.742Z,99334.83
2018-07-15T12:24:32.425Z,99327.67
2018-07-15T12:27:01.117Z,99328.09
2018-07-15T12:29:29.805Z,99321.77
2018-07-15T12:31:58.528Z,99323.84
2018-07-15T12:34:27.204Z,99318.52
2018-07-15T12:36:55.964Z,99320.94
2018-07-15T12:39:24.702Z,99318.04
2018-07-15T12:41:53.384Z,99314.06
2018-07-15T12:44:22.182Z,99300.50
2018-07-15T12:46:51.294Z,99311.69
2018-07-15T12:49:20.188Z,99305.29
2018-07-15T12:51:48.981Z,99300.41
2018-07-15T12:54:17.764Z,99304.81
2018-07-15T12:56:46.679Z,99305.80
2018-07-15T12:59:15.854Z,99303.78
2018-07-15T13:01:44.711Z,99302.67
2018-07-15T13:04:13.442Z,99297.60
2018-07-15T13:06:42.582Z,99297.04
2018-07-15T13:09:11.827Z,99301.59
2018-07-15T13:11:41.165Z,99302.64
2018-07-15T13:14:10.334Z,99305.05
2018-07-15T13:16:39.569Z,99304.73
2018-07-15T13:19:08.389Z,99302.98
2018-07-15T13:21:37.178Z,99299.33
2018-07-15T13:24:05.952Z,99297.56
2018-07-15T13:26:34.682Z,99292.22
2018-07-15T13:29:03.479Z,99304.16
2018-07-15T13:31:32.334Z,99295.97
2018-07-15T13:34:01.159Z,99303.34
2018-07-15T13:36:30.033Z,99303.49
2018-07-15T13:38:58.835Z,99297.45
2018-07-15T13:41:27.641Z,99300.14
2018-07-15T13:43:56.896Z,99302.39
2018-07-15T13:46:25.621Z,99298.42
2018-07-15T13:48:54.435Z,99290.73
2018-07-15T13:51:23.296Z,99296.18
2018-07-15T13:53:52.116Z,99291.14
2018-07-15T13:56:20.894Z,99292.70
2018-07-15T13:58:49.843Z,99298.73
2018-07-15T14:01:18.579Z,99302.38
2018-07-15T14:03:47.319Z,99285.39
2018-07-15T14:06:16.161Z,99286.64
2018-07-15T14:08:44.934Z,99278.89
2018-07-15T14:11:13.744Z,99279.10
2018-07-15T14:13:42.538Z,99287.81
2018-07-15T14:16:11.282Z,99287.81
2018-07-15T14:18:40.091Z,99282.00
2018-07-15T14:21:08.863Z,99279.47
2018-07-15T14:23:37.600Z,99283.72
2018-07-15T14:26:06.555Z,99279.63
2018-07-15T14:28:35.343Z,99279.49
2018-07-15T14:31:04.200Z,99271.90
2018-07-15T14:33:32.978Z,99271.47
2018-07-15T14:36:01.879Z,99275.48
2018-07-15T14:38:30.666Z,99270.74
2018-07-15T14:40:59.866Z,99267.45
2018-07-15T14:43:28.625Z,99268.51
2018-07-15T14:45:57.519Z,99268.20
2018-07-15T14:48:26.414Z,99271.64
2018-07-15T14:50:55.758Z,99266.75
2018-07-15T14:53:24.954Z,99270.78
2018-07-15T14:55:54.156Z,99265.59
2018-07-15T14:58:23.331Z,99265.31
2018-07-15T15:00:52.627Z,99259.10
2018-07-15T15:03:21.839Z,99260.84
2018-07-15T15:05:50.585Z,99262.17
2018-07-15T15:08:19.404Z,99266.75
2018-07-15T15:10:48.259Z,99256.78
2018-07-15T15:13:17.224Z,99257.42
2018-07-15T15:15:46.105Z,99265.63
2018-07-15T15:18:14.983Z,99255.20
2018-07-15T15:20:43.965Z,99260.85
2018-07-15T15:23:13.040Z,99264.53
2018-07-15T15:25:42.361Z,99260.59
2018-07-15T15:28:11.751Z,99258.26
2018-07-15T15:30:41.026Z,99257.55
2018-07-15T15:33:10.194Z,99261.52
2018-07-15T15:35:39.248Z,99258.32
2018-07-15T15:38:08.513Z,99262.64
2018-07-15T15:40:39.291Z,99258.50
2018-07-15T15:43:09.225Z,99261.70
2018-07-15T15:45:38.358Z,99261.34
2018-07-15T15:48:07.818Z,99257.81
2018-07-15T15:50:36.970Z,99252.03
2018-07-15T15:53:06.199Z,99252.94
2018-07-15T15:55:35.413Z,99251.41
2018-07-15T15:58:04.644Z,99248.65
2018-07-15T16:00:33.869Z,99255.95
2018-07-15T16:03:03.087Z,99254.72
2018-07-15T16:05:32.337Z,99246.44
2018-07-15T16:08:01.588Z,99249.41
2018-07-15T16:10:31.635Z,99248.83
2018-07-15T16:13:01.859Z,99202.04
2018-07-15T16:15:31.222Z,99248.91
2018-07-15T16:18:00.942Z,99238.66
2018-07-15T16:20:30.162Z,99244.77
2018-07-15T16:22:59.933Z,99241.91
2018-07-15T16:25:31.035Z,99236.88
2018-07-15T16:28:01.714Z,99241.20
2018-07-15T16:30:32.652Z,99234.08
2018-07-15T16:33:01.854Z,99238.64
2018-07-15T16:35:30.853Z,99236.54
2018-07-15T16:38:00.159Z,99232.86
2018-07-15T16:40:29.254Z,99238.23
2018-07-15T16:43:00.419Z,99230.81
2018-07-15T16:45:32.650Z,99230.63
2018-07-15T16:48:03.590Z,99228.79
2018-07-15T16:50:34.562Z,99228.94
2018-07-15T16:53:04.796Z,99233.67
2018-07-15T16:55:34.110Z,99234.14
2018-07-15T16:58:03.364Z,99230.91
2018-07-15T17:00:32.556Z,99238.51
2018-07-15T17:03:01.793Z,99235.31
2018-07-15T17:05:30.941Z,99234.85
2018-07-15T17:08:00.247Z,99239.20
2018-07-15T17:10:29.355Z,99236.39
2018-07-15T17:12:58.597Z,99234.99
2018-07-15T17:15:27.941Z,99231.31
2018-07-15T17:17:57.155Z,99233.93
2018-07-15T17:20:26.394Z,99234.89
2018-07-15T17:22:55.414Z,99239.73
2018-07-15T17:25:24.593Z,99237.27
2018-07-15T17:27:53.392Z,99235.75
2018-07-15T17:30:22.718Z,99235.80
2018-07-15T17:32:52.523Z,99240.64
2018-07-15T17:35:21.698Z,99245.17
2018-07-15T17:37:50.826Z,99243.52
2018-07-15T17:40:20.101Z,99246.56
2018-07-15T17:42:49.444Z,99241.71
2018-07-15T17:45:18.909Z,99226.58
2018-07-15T17:47:48.134Z,99237.77
2018-07-15T17:50:17.605Z,99238.53
2018-07-15T17:52:47.007Z,99236.78
2018-07-15T17:55:16.217Z,99241.14
2018-07-15T17:57:45.405Z,99231.70
2018-07-15T18:00:14.545Z,99230.91
2018-07-15T18:02:43.839Z,99240.80
2018-07-15T18:05:12.809Z,99246.10
2018-07-15T18:07:42.046Z,99245.40
2018-07-15T18:10:11.189Z,99254.17
2018-07-15T18:12:40.225Z,99256.70
2018-07-15T18:15:09.417Z,99254.27
2018-07-15T18:17:38.573Z,99267.52
2018-07-15T18:20:07.751Z,99266.61
2018-07-15T18:22:37.004Z,99267.95
2018-07-15T18:25:06.238Z,99275.80
2018-07-15T18:27:35.372Z,99275.91
2018-07-15T18:30:04.448Z,99275.18
2018-07-15T18:32:33.759Z,99273.57
2018-07-15T18:35:03.134Z,99280.05
2018-07-15T18:37:32.551Z,99289.24
2018-07-15T18:40:01.788Z,99287.99
2018-07-15T18:42:31.074Z,99300.84
2018-07-15T18:45:00.384Z,99297.56
2018-07-15T18:47:29.384Z,99296.31
2018-07-15T18:49:58.674Z,99306.05
2018-07-15T18:52:27.896Z,99301.00
2018-07-15T18:54:57.028Z,99309.89
2018-07-15T18:57:26.257Z,99312.19
2018-07-15T18:59:55.279Z,99315.02
2018-07-15T19:02:24.452Z,99316.88
2018-07-15T19:04:53.657Z,99324.52
2018-07-15T19:07:22.901Z,99330.45
2018-07-15T19:09:52.103Z,99331.59
2018-07-15T19:12:21.254Z,99329.33
2018-07-15T19:14:50.437Z,99327.78
2018-07-15T19:17:19.791Z,99332.72
2018-07-15T19:19:49.069Z,99325.58
2018-07-15T19:22:18.263Z,99327.12
2018-07-15T19:24:48.981Z,99326.16
2018-07-15T19:27:18.179Z,99321.57
2018-07-15T19:29:47.314Z,99323.02
2018-07-15T19:32:22.410Z,99318.55
2018-07-15T19:34:55.747Z,99319.16
2018-07-15T19:37:29.999Z,99319.30
2018-07-15T19:39:59.533Z,99324.17
2018-07-15T19:42:28.681Z,99318.55
2018-07-15T19:44:57.733Z,99326.08
2018-07-15T19:47:26.972Z,99316.53
2018-07-15T19:49:56.162Z,99318.09
2018-07-15T19:52:25.312Z,99321.36
2018-07-15T19:54:54.637Z,99330.70
2018-07-15T19:57:23.922Z,99323.22
2018-07-15T19:59:53.158Z,99325.63
2018-07-15T20:02:22.315Z,99324.39
2018-07-15T20:04:51.544Z,99326.55
2018-07-15T20:07:20.717Z,99329.90
2018-07-15T20:09:49.913Z,99328.65
2018-07-15T20:12:25.142Z,99327.71
2018-07-15T20:14:59.775Z,99331.55
2018-07-15T20:17:34.730Z,99331.03
2018-07-15T20:20:08.505Z,99339.81
2018-07-15T20:22:43.503Z,99343.39
2018-07-15T20:25:16.936Z,99349.66
2018-07-15T20:27:51.073Z,99353.17
2018-07-15T20:30:25.638Z,99351.45
2018-07-15T20:33:00.931Z,99352.02
2018-07-15T20:35:35.433Z,99351.58
2018-07-15T20:38:08.759Z,99350.21
2018-07-15T20:40:37.860Z,99348.84
2018-07-15T20:43:06.594Z,99347.73
2018-07-15T20:45:35.329Z,99346.94
2018-07-15T20:48:04.202Z,99354.84
2018-07-15T20:50:32.950Z,99352.11
2018-07-15T20:53:01.823Z,99359.27
2018-07-15T20:55:30.537Z,99358.55
2018-07-15T20:57:59.250Z,99366.11
2018-07-15T21:00:27.949Z,99368.80
2018-07-15T21:02:56.677Z,99370.89
2018-07-15T21:05:25.386Z,99375.26
2018-07-15T21:07:54.333Z,99373.36
2018-07-15T21:10:23.587Z,99381.32
2018-07-15T21:12:52.710Z,99373.22
2018-07-15T21:15:21.947Z,99377.59
2018-07-15T21:17:51.065Z,99375.98
2018-07-15T21:20:19.976Z,99369.73
2018-07-15T21:22:48.978Z,99368.11
2018-07-15T21:25:17.942Z,99371.09
2018-07-15T21:27:46.863Z,99369.02
2018-07-15T21:30:15.902Z,99369.81
2018-07-15T21:32:45.057Z,99369.52
2018-07-15T21:35:13.982Z,99374.11
2018-07-15T21:37:42.922Z,99368.46
2018-07-15T21:40:12.154Z,99368.27
2018-07-15T21:42:41.445Z,99373.31
2018-07-15T21:45:10.738Z,99375.86
2018-07-15T21:47:40.069Z,99366.30
2018-07-15T21:50:09.271Z,99367.49
2018-07-15T21:52:38.478Z,99365.11
2018-07-15T21:55:07.733Z,99362.13
2018-07-15T21:57:36.980Z,99366.88
2018-07-15T22:00:07.059Z,99367.68
2018-07-15T22:02:36.178Z,99375.87
2018-07-15T22:05:05.387Z,99379.98
2018-07-15T22:07:45.283Z,99376.75
2018-07-15T22:10:24.406Z,99371.55
2018-07-15T22:12:53.525Z,99372.34
2018-07-15T22:15:22.217Z,99372.86
2018-07-15T22:17:50.935Z,99371.91
2018-07-15T22:20:19.641Z,99382.74
2018-07-15T22:22:48.414Z,99381.39
2018-07-15T22:25:17.114Z,99383.63
2018-07-15T22:27:45.841Z,99383.41
2018-07-15T22:30:14.561Z,99380.17
2018-07-15T22:32:43.761Z,99373.41
2018-07-15T22:35:12.488Z,99376.13
2018-07-15T22:37:41.246Z,99372.87
2018-07-15T22:40:09.937Z,99367.69
2018-07-15T22:42:38.656Z,99368.27
2018-07-15T22:45:07.776Z,99370.41
2018-07-15T22:47:36.496Z,99366.62
2018-07-15T22:50:05.229Z,99356.07
2018-07-15T22:52:34.042Z,99376.09
2018-07-15T22:55:02.738Z,99374.48
2018-07-15T22:57:31.470Z,99387.56
2018-07-15T23:00:00.178Z,99379.47
2018-07-15T23:02:28.891Z,99387.62
2018-07-15T23:05:36.110Z,99382.77
2018-07-15T23:08:05.691Z,99388.85
2018-07-15T23:10:34.887Z,99381.86
2018-07-15T23:13:05.229Z,99374.54
2018-07-15T23:15:34.882Z,99378.91
2018-07-15T23:18:04.050Z,99380.81
2018-07-15T23:20:33.945Z,99374.80
2018-07-15T23:23:04.161Z,99367.98
2018-07-15T23:25:33.674Z,99370.87
2018-07-15T23:28:03.265Z,99371.48
2018-07-15T23:30:33.144Z,99377.98
2018-07-15T23:33:02.673Z,99367.11
2018-07-15T23:35:32.334Z,99375.23
2018-07-15T23:38:01.447Z,99382.03
2018-07-15T23:40:30.592Z,99377.44
2018-07-15T23:43:00.237Z,99381.25
2018-07-15T23:45:30.186Z,99388.59
2018-07-15T23:47:59.314Z,99382.38
2018-07-15T23:50:28.362Z,99388.36
2018-07-15T23:52:57.525Z,99390.53
2018-07-15T23:55:26.821Z,99390.21
2018-07-15T23:57:56.085Z,99386.72
